Ana Sayfa
METAR-TAF:

METAR-TAF

Havaalanları :

Mountain Empire Airport

Marion / Wytheville, Virginia, Amerika Birleşik Devletleri

Enlem: 36-54N, Boylam: 081-21W, yükseklik: 780 m

Güncel hava durumu gözlemi

Rapor saat 12:15 UTC de 30 dakika önce yapıldı.
Sakin rüzgar
Sıcaklık 9°C
Nem 81%
Basınç 1027 hPa
Görüş mesafesi: 16.1 km
7000 ft yükseklikte çok bulutlu

METAR: KMKJ 161215Z AUTO 00000KT 10SM OVC070 09/06 A3033 RMK AO2 T00870064

Saat: 08:45 (12:45 UTC)


TAF: eksik

4.000'den fazla havaalanı için hava durumu gözlemleri ve tahminleri (METAR ve TAF raporları).

Kullanılabilir istasyonlar harita üzerinde sarı ve kırmızı noktalarla gösterilir.

İstasyonun adını görmek için fareyi noktanın üzerinde gezdirin.

Sonrasında hava gözlem ve tahminlerini görmek için tıklayın.

Haritayı değiştirmek için: yaklaştırmak için siyah artı işaretli yeşil düğmeye ve uzaklaştırmak için de eksi işaretli düğmeye hızla tıklayın; bitişik haritalar için yeşil okları kullanın.


METAR-TAF: